Time;durP1;ratioP1;P1;durP2;ratioP2;P2;SDS_P1;SDS_P2;PMS_P1;PMS_P2;Temp;Humidity;BMP_temperature;BMP_pressure;BME280_temperature;BME280_humidity;BME280_pressure;Samples;Min_cycle;Max_cycle;Signal;HPM_P1;HPM_P2
2021/01/30 00:01:57;;;;;;;9.15;2.17;;;16.20;77.70;;;;;;5031035;28;20083;-79
2021/01/30 00:04:23;;;;;;;8.05;2.35;;;16.20;77.70;;;;;;5031150;28;20034;-79
2021/01/30 00:06:53;;;;;;;9.18;3.28;;;16.20;77.80;;;;;;5031454;28;20429;-78
2021/01/30 00:09:20;;;;;;;8.75;2.22;;;16.20;77.80;;;;;;5031404;28;20033;-78
2021/01/30 00:11:52;;;;;;;12.95;2.80;;;16.10;77.80;;;;;;5031514;28;20420;-80
2021/01/30 00:14:26;;;;;;;11.00;2.75;;;16.10;77.80;;;;;;5032392;28;20494;-77
2021/01/30 00:16:51;;;;;;;9.70;2.80;;;16.10;77.90;;;;;;5034962;28;20387;-77
2021/01/30 00:19:18;;;;;;;10.90;2.08;;;16.10;77.90;;;;;;5031178;28;20024;-77
2021/01/30 00:21:55;;;;;;;12.18;2.83;;;16.10;78.00;;;;;;5030965;28;20398;-78
2021/01/30 00:24:21;;;;;;;12.20;3.28;;;16.00;78.00;;;;;;5031113;28;20029;-78
2021/01/30 00:26:54;;;;;;;11.52;3.67;;;16.00;78.10;;;;;;5030627;28;20393;-77
2021/01/30 00:29:21;;;;;;;9.30;2.38;;;16.00;78.10;;;;;;5030956;28;20021;-77
2021/01/30 00:31:47;;;;;;;10.07;2.53;;;16.00;78.20;;;;;;5030360;28;20037;-77
2021/01/30 00:34:15;;;;;;;10.10;2.47;;;16.00;78.20;;;;;;5030690;28;20401;-76
2021/01/30 00:36:40;;;;;;;7.90;2.40;;;15.90;78.20;;;;;;5030767;28;20025;-78
2021/01/30 00:39:07;;;;;;;12.35;2.42;;;15.90;78.30;;;;;;5031163;28;20025;-78
2021/01/30 00:41:33;;;;;;;7.95;2.03;;;15.90;78.30;;;;;;5031048;28;20032;-76
2021/01/30 00:43:59;;;;;;;10.65;2.88;;;15.90;78.40;;;;;;5031084;28;20112;-76
2021/01/30 00:46:26;;;;;;;12.57;2.70;;;15.90;78.40;;;;;;5038667;28;20033;-78
2021/01/30 00:48:52;;;;;;;11.10;2.58;;;15.90;78.50;;;;;;5044495;28;20029;-78
2021/01/30 00:51:19;;;;;;;11.98;3.03;;;15.90;78.60;;;;;;5051107;28;20028;-77
2021/01/30 00:53:45;;;;;;;11.63;3.00;;;15.80;78.50;;;;;;5046289;28;20128;-76
2021/01/30 00:56:12;;;;;;;15.13;3.05;;;15.80;78.60;;;;;;5030455;28;20116;-78
2021/01/30 00:58:39;;;;;;;14.77;3.83;;;15.80;78.60;;;;;;5030752;28;20071;-77
2021/01/30 01:01:05;;;;;;;11.35;2.97;;;15.80;78.70;;;;;;5029878;28;20033;-77
2021/01/30 01:03:30;;;;;;;13.88;2.28;;;15.80;78.70;;;;;;5032989;28;20571;-77
2021/01/30 01:05:56;;;;;;;11.25;3.28;;;15.80;78.70;;;;;;5033495;28;20493;-77
2021/01/30 01:08:21;;;;;;;9.70;2.88;;;15.70;78.70;;;;;;5034902;28;20034;-77
2021/01/30 01:10:47;;;;;;;10.77;2.58;;;15.70;78.80;;;;;;5034929;28;20434;-76
2021/01/30 01:13:13;;;;;;;12.55;2.97;;;15.70;78.90;;;;;;5034746;28;20034;-77
2021/01/30 01:15:39;;;;;;;11.88;2.83;;;15.70;78.90;;;;;;5044657;28;20101;-77
2021/01/30 01:18:04;;;;;;;12.30;2.78;;;15.70;78.90;;;;;;5040577;28;20117;-77
2021/01/30 01:20:30;;;;;;;15.68;3.50;;;15.70;79.00;;;;;;5035115;28;20026;-77
2021/01/30 01:22:55;;;;;;;12.52;3.28;;;15.70;79.20;;;;;;5034136;28;20036;-77
2021/01/30 01:25:22;;;;;;;8.70;2.17;;;15.60;79.00;;;;;;5034119;28;20055;-77
2021/01/30 01:27:49;;;;;;;12.27;2.55;;;15.60;79.10;;;;;;5033950;28;20029;-77
2021/01/30 01:30:15;;;;;;;17.15;4.03;;;15.60;79.20;;;;;;5034225;28;20029;-77
2021/01/30 01:32:41;;;;;;;12.40;3.67;;;15.60;79.20;;;;;;5032941;28;20034;-77
2021/01/30 01:35:08;;;;;;;12.32;2.75;;;15.60;79.30;;;;;;5034077;28;20544;-79
2021/01/30 01:37:34;;;;;;;10.25;3.00;;;15.60;79.30;;;;;;5034509;28;20052;-80
2021/01/30 01:40:00;;;;;;;12.73;2.95;;;15.50;79.50;;;;;;5034367;28;20477;-76
2021/01/30 01:42:26;;;;;;;12.30;2.83;;;15.50;79.30;;;;;;5034392;28;20029;-77
2021/01/30 01:44:53;;;;;;;12.60;3.15;;;15.50;79.40;;;;;;5041297;28;20029;-81
2021/01/30 01:47:21;;;;;;;9.02;2.75;;;15.50;79.40;;;;;;5040531;28;20052;-81
2021/01/30 01:49:48;;;;;;;9.82;2.13;;;15.50;79.40;;;;;;5050547;28;20104;-77
2021/01/30 01:52:34;;;;;;;11.23;2.88;;;15.50;79.50;;;;;;5047110;28;20104;-81
2021/01/30 01:55:05;;;;;;;11.70;2.75;;;15.50;79.50;;;;;;5034235;28;20028;-79
2021/01/30 01:57:31;;;;;;;10.75;3.33;;;15.50;79.60;;;;;;5033966;28;20079;-82
2021/01/30 01:59:57;;;;;;;9.98;2.40;;;15.50;79.60;;;;;;5034472;28;20033;-78
2021/01/30 02:02:27;;;;;;;12.13;3.03;;;15.50;79.70;;;;;;5033403;28;20026;-81
2021/01/30 02:05:08;;;;;;;11.77;2.63;;;15.40;79.60;;;;;;5033081;28;20064;-81
2021/01/30 02:07:39;;;;;;;11.15;2.85;;;15.40;79.70;;;;;;5013885;28;20061;-77
2021/01/30 02:10:09;;;;;;;16.02;3.35;;;15.40;79.70;;;;;;5028279;28;20052;-79
2021/01/30 02:12:35;;;;;;;18.23;3.55;;;15.40;79.80;;;;;;5033600;28;20064;-79
2021/01/30 02:15:00;;;;;;;11.48;2.80;;;15.40;79.80;;;;;;5043682;28;20442;-81
2021/01/30 02:17:49;;;;;;;13.55;3.35;;;15.40;79.80;;;;;;5039124;28;20022;-80
2021/01/30 02:21:01;;;;;;;12.77;3.70;;;15.40;80.60;;;;;;5014011;28;20101;-80
2021/01/30 02:24:04;;;;;;;11.50;3.53;;;15.40;80.00;;;;;;5025328;28;20030;-77
2021/01/30 02:27:01;;;;;;;14.32;3.17;;;15.40;79.90;;;;;;5011232;28;20557;-78
2021/01/30 02:29:43;;;;;;;10.40;3.03;;;15.40;80.00;;;;;;5033436;28;20036;-77
2021/01/30 02:32:38;;;;;;;15.55;3.35;;;15.30;79.90;;;;;;5033558;28;20044;-80
2021/01/30 02:35:22;;;;;;;13.93;2.95;;;15.30;80.00;;;;;;5031571;28;20038;-78
2021/01/30 02:38:01;;;;;;;12.15;3.17;;;15.30;80.10;;;;;;5033172;28;20061;-79
2021/01/30 02:40:33;;;;;;;11.38;3.50;;;15.30;80.10;;;;;;5031475;28;20025;-81
2021/01/30 02:43:05;;;;;;;11.20;2.17;;;15.30;80.20;;;;;;5034141;28;20444;-78
2021/01/30 02:45:35;;;;;;;11.27;2.60;;;15.30;81.00;;;;;;5032385;28;20079;-79
2021/01/30 02:48:18;;;;;;;12.13;2.90;;;15.30;80.20;;;;;;5033418;28;20429;-76
2021/01/30 02:50:50;;;;;;;11.10;2.90;;;15.30;80.20;;;;;;5052800;28;20061;-78
2021/01/30 02:53:21;;;;;;;12.05;2.65;;;15.20;80.20;;;;;;5052878;28;20029;-79
2021/01/30 02:55:48;;;;;;;13.80;3.13;;;15.20;80.20;;;;;;5021740;28;20026;-78
2021/01/30 02:58:15;;;;;;;13.30;3.58;;;15.30;80.20;;;;;;5032671;28;20485;-77
2021/01/30 03:00:44;;;;;;;13.88;3.45;;;15.20;80.30;;;;;;5031735;28;20049;-78
2021/01/30 03:03:10;;;;;;;11.77;3.15;;;15.20;81.00;;;;;;5032757;28;20053;-76
2021/01/30 03:05:36;;;;;;;12.35;3.40;;;15.20;80.30;;;;;;5032506;28;20064;-79
2021/01/30 03:08:05;;;;;;;15.00;3.60;;;15.20;80.30;;;;;;5032961;28;20029;-77
2021/01/30 03:10:55;;;;;;;11.90;2.58;;;15.20;80.30;;;;;;5032229;28;20112;-77
2021/01/30 03:13:37;;;;;;;12.48;2.70;;;15.20;80.40;;;;;;5012784;28;20124;-79
2021/01/30 03:16:25;;;;;;;9.85;3.10;;;15.20;80.40;;;;;;5028491;28;20112;-78
2021/01/30 03:19:02;;;;;;;11.45;2.90;;;15.20;80.50;;;;;;5040225;28;20088;-79
2021/01/30 03:21:29;;;;;;;13.00;2.88;;;15.20;80.50;;;;;;5032868;28;20049;-80
2021/01/30 03:23:56;;;;;;;13.10;3.58;;;15.20;80.50;;;;;;5032273;28;20026;-78
2021/01/30 03:26:24;;;;;;;11.07;2.83;;;15.10;80.50;;;;;;5030751;28;20029;-79
2021/01/30 03:28:51;;;;;;;12.93;2.78;;;15.20;80.50;;;;;;5031818;28;20516;-77
2021/01/30 03:31:17;;;;;;;11.60;3.03;;;15.20;80.60;;;;;;5012412;28;20493;-78
2021/01/30 03:33:43;;;;;;;16.05;3.38;;;15.10;80.60;;;;;;5020222;28;20602;-77
2021/01/30 03:36:09;;;;;;;13.32;3.67;;;15.10;80.70;;;;;;5031794;28;20049;-77
2021/01/30 03:38:36;;;;;;;8.63;2.40;;;15.10;80.60;;;;;;5033765;28;20057;-77
2021/01/30 03:41:02;;;;;;;12.20;3.15;;;15.10;80.60;;;;;;5040369;28;20025;-78
2021/01/30 03:43:28;;;;;;;14.75;3.40;;;15.10;80.60;;;;;;5034245;28;20116;-77
2021/01/30 03:45:54;;;;;;;12.65;3.20;;;15.10;80.70;;;;;;5031269;28;20100;-77
2021/01/30 03:48:19;;;;;;;13.95;2.90;;;15.10;80.70;;;;;;5031890;28;20177;-76
2021/01/30 03:50:45;;;;;;;12.90;3.20;;;15.10;80.70;;;;;;5050246;28;20025;-76
2021/01/30 03:53:11;;;;;;;10.65;2.45;;;15.10;81.40;;;;;;5051794;28;20033;-80
2021/01/30 03:55:37;;;;;;;12.05;2.95;;;15.10;80.70;;;;;;5040304;28;20051;-77
2021/01/30 03:58:04;;;;;;;12.15;3.28;;;15.10;80.80;;;;;;5031519;28;20055;-78
2021/01/30 04:00:29;;;;;;;14.20;3.08;;;15.00;80.70;;;;;;5031732;28;20164;-79
2021/01/30 04:02:55;;;;;;;12.25;3.38;;;15.00;80.70;;;;;;5031203;28;20548;-80
2021/01/30 04:05:24;;;;;;;9.93;2.47;;;15.00;80.70;;;;;;5031538;28;20060;-77
2021/01/30 04:07:52;;;;;;;15.10;3.53;;;15.00;80.70;;;;;;5031544;28;20422;-79
2021/01/30 04:10:32;;;;;;;12.90;2.63;;;15.00;80.70;;;;;;5032582;28;20095;-79
2021/01/30 04:13:02;;;;;;;12.18;2.92;;;15.00;80.80;;;;;;5031398;28;20037;-77
2021/01/30 04:15:32;;;;;;;15.95;3.38;;;15.00;80.80;;;;;;5031351;28;20524;-80
2021/01/30 04:17:58;;;;;;;13.75;3.00;;;15.00;80.80;;;;;;5031246;28;20028;-77
2021/01/30 04:20:25;;;;;;;14.85;3.30;;;15.00;80.80;;;;;;5048869;28;20036;-79
2021/01/30 04:22:50;;;;;;;11.77;2.55;;;15.00;80.80;;;;;;5051330;28;20028;-80
2021/01/30 04:25:19;;;;;;;13.13;3.38;;;15.00;80.90;;;;;;5034112;28;20505;-79
2021/01/30 04:27:45;;;;;;;14.07;2.72;;;15.00;80.90;;;;;;5031129;28;20037;-79
2021/01/30 04:30:14;;;;;;;13.68;3.33;;;15.00;81.00;;;;;;5031148;28;20022;-76
2021/01/30 04:32:39;;;;;;;15.35;3.67;;;15.00;81.00;;;;;;5030563;28;20034;-80
2021/01/30 04:35:13;;;;;;;15.30;3.35;;;14.90;80.90;;;;;;5031135;28;20029;-81
2021/01/30 04:37:38;;;;;;;9.93;3.17;;;14.90;80.80;;;;;;5030207;28;20053;-79
2021/01/30 04:40:07;;;;;;;12.45;2.97;;;14.90;80.90;;;;;;5037527;28;20121;-82
2021/01/30 04:42:39;;;;;;;11.18;2.55;;;15.00;81.00;;;;;;5030918;28;20040;-77
2021/01/30 04:45:14;;;;;;;12.85;3.05;;;14.90;80.90;;;;;;5029827;28;20021;-81
2021/01/30 04:47:56;;;;;;;11.30;3.25;;;14.90;80.90;;;;;;5028784;28;20104;-80
2021/01/30 04:50:29;;;;;;;15.82;3.05;;;14.90;81.00;;;;;;5048098;28;20025;-76
2021/01/30 04:53:07;;;;;;;16.70;3.15;;;14.90;81.00;;;;;;5049186;28;20033;-78
2021/01/30 04:55:41;;;;;;;9.65;2.80;;;14.90;81.10;;;;;;5045850;28;20104;-76
2021/01/30 04:58:23;;;;;;;9.68;2.53;;;14.90;81.70;;;;;;5029749;28;20033;-80
2021/01/30 05:01:02;;;;;;;11.57;3.05;;;14.90;80.90;;;;;;5029126;28;20022;-77
2021/01/30 05:04:15;;;;;;;11.30;2.85;;;14.90;81.00;;;;;;5030621;28;20116;-77
2021/01/30 05:07:09;;;;;;;9.38;2.95;;;14.90;81.10;;;;;;5010886;28;20065;-78
2021/01/30 05:09:57;;;;;;;11.18;2.63;;;14.90;81.00;;;;;;5034932;28;20029;-76
2021/01/30 05:12:53;;;;;;;10.45;3.00;;;14.90;81.10;;;;;;5030858;28;20041;-80
2021/01/30 05:15:35;;;;;;;13.63;2.78;;;14.80;81.00;;;;;;5031079;28;20022;-76
2021/01/30 05:18:15;;;;;;;14.27;3.97;;;14.90;81.10;;;;;;5030445;28;20037;-79
2021/01/30 05:20:48;;;;;;;10.57;2.55;;;14.80;81.10;;;;;;5049980;28;20380;-79
2021/01/30 05:23:14;;;;;;;11.82;3.08;;;14.80;81.00;;;;;;5050656;28;20055;-77
2021/01/30 05:25:54;;;;;;;11.07;2.97;;;14.80;81.70;;;;;;5044502;28;20021;-76
2021/01/30 05:28:58;;;;;;;13.93;2.70;;;14.80;81.00;;;;;;5030708;28;20493;-79
2021/01/30 05:31:34;;;;;;;14.75;3.25;;;14.80;81.10;;;;;;5010933;28;20081;-77
2021/01/30 05:34:18;;;;;;;10.45;2.97;;;14.80;81.00;;;;;;5027122;28;20048;-78
2021/01/30 05:36:52;;;;;;;11.05;2.97;;;14.80;81.10;;;;;;5030618;28;20445;-76
2021/01/30 05:39:43;;;;;;;13.45;2.90;;;14.80;81.10;;;;;;5032249;28;20494;-77
2021/01/30 05:42:30;;;;;;;10.30;2.78;;;14.80;81.10;;;;;;5030550;28;20026;-76
2021/01/30 05:45:06;;;;;;;9.60;2.60;;;14.80;81.10;;;;;;5029948;28;20032;-77
2021/01/30 05:47:32;;;;;;;11.02;3.42;;;14.80;81.10;;;;;;5029201;28;20545;-76
2021/01/30 05:50:03;;;;;;;11.02;2.65;;;14.70;81.10;;;;;;5032776;28;20029;-77
2021/01/30 05:52:32;;;;;;;10.73;2.95;;;14.70;81.10;;;;;;5037519;28;20032;-76
2021/01/30 05:54:58;;;;;;;13.98;2.95;;;14.80;81.20;;;;;;5054390;28;20531;-77
2021/01/30 05:57:24;;;;;;;15.02;2.42;;;14.80;81.20;;;;;;5033735;28;20029;-76
2021/01/30 05:59:55;;;;;;;8.93;2.60;;;14.70;81.10;;;;;;5032698;28;20029;-76
2021/01/30 06:02:26;;;;;;;9.80;2.72;;;14.70;81.10;;;;;;5034740;28;20454;-76
2021/01/30 06:04:52;;;;;;;11.23;3.00;;;14.70;81.20;;;;;;5014053;28;20534;-75
2021/01/30 06:07:37;;;;;;;13.30;2.65;;;14.70;81.20;;;;;;5020452;28;20049;-76
2021/01/30 06:10:31;;;;;;;9.80;2.40;;;14.70;81.10;;;;;;5033476;28;20033;-76
2021/01/30 06:13:13;;;;;;;11.73;2.67;;;14.70;81.20;;;;;;5033639;28;20041;-78
2021/01/30 06:15:43;;;;;;;11.73;3.10;;;14.70;81.20;;;;;;5033585;28;20030;-78
2021/01/30 06:18:28;;;;;;;11.38;2.92;;;14.70;81.20;;;;;;5033408;28;20033;-76
2021/01/30 06:21:05;;;;;;;14.20;2.70;;;14.70;81.20;;;;;;5013853;28;20026;-80
2021/01/30 06:23:31;;;;;;;10.73;2.63;;;14.70;81.20;;;;;;5030971;28;20386;-79
2021/01/30 06:26:08;;;;;;;9.30;2.33;;;14.70;81.20;;;;;;5033292;28;20032;-77
2021/01/30 06:28:36;;;;;;;12.48;3.97;;;14.70;81.20;;;;;;5033278;28;20378;-78
2021/01/30 06:31:39;;;;;;;7.85;2.30;;;14.70;81.30;;;;;;5041986;28;20025;-77
2021/01/30 06:34:29;;;;;;;12.38;2.88;;;14.70;81.30;;;;;;5041627;28;20045;-78
2021/01/30 06:36:56;;;;;;;9.52;2.50;;;14.60;81.30;;;;;;5024776;28;20089;-78
2021/01/30 06:39:35;;;;;;;8.32;2.17;;;14.70;81.40;;;;;;5032316;28;20464;-77
2021/01/30 06:42:12;;;;;;;12.70;2.72;;;14.70;81.40;;;;;;5033602;28;20379;-79
2021/01/30 06:44:38;;;;;;;7.57;2.30;;;14.70;81.40;;;;;;5032600;28;20033;-76
2021/01/30 06:47:17;;;;;;;11.68;2.90;;;14.60;81.40;;;;;;5032799;28;20497;-76
2021/01/30 06:49:50;;;;;;;12.43;2.70;;;14.60;81.30;;;;;;5044019;28;20055;-76
2021/01/30 06:52:30;;;;;;;11.07;3.25;;;14.60;81.40;;;;;;5048302;28;20029;-76
2021/01/30 06:55:04;;;;;;;10.95;2.42;;;14.60;81.50;;;;;;5033810;28;20033;-78
2021/01/30 06:57:32;;;;;;;12.73;3.50;;;14.60;81.60;;;;;;5051804;28;20032;-77
2021/01/30 07:00:04;;;;;;;8.82;2.70;;;14.60;81.60;;;;;;5043670;28;20071;-77
2021/01/30 07:02:41;;;;;;;8.30;2.50;;;14.60;81.60;;;;;;5032580;28;20034;-77
2021/01/30 07:05:22;;;;;;;9.63;2.50;;;14.60;81.70;;;;;;5032255;28;20072;-74
2021/01/30 07:07:54;;;;;;;9.02;2.55;;;14.60;81.70;;;;;;5032771;28;20477;-74
2021/01/30 07:10:29;;;;;;;8.50;2.80;;;14.60;81.80;;;;;;5031051;28;20167;-75
2021/01/30 07:13:10;;;;;;;12.93;3.28;;;14.60;81.80;;;;;;5032350;28;20037;-74
2021/01/30 07:16:04;;;;;;;8.43;2.30;;;14.60;81.90;;;;;;5032130;28;20091;-75
2021/01/30 07:18:32;;;;;;;8.85;1.88;;;14.60;81.90;;;;;;5006828;28;20048;-75
2021/01/30 07:21:20;;;;;;;11.50;2.85;;;14.60;81.90;;;;;;5032697;28;20033;-76
2021/01/30 07:24:37;;;;;;;10.82;3.05;;;14.60;82.00;;;;;;5033866;28;20101;-74
2021/01/30 07:27:11;;;;;;;9.57;2.65;;;14.60;82.00;;;;;;5024625;28;20142;-74
2021/01/30 07:30:04;;;;;;;9.25;2.40;;;14.60;82.20;;;;;;5031695;28;20394;-74
2021/01/30 07:32:33;;;;;;;9.55;3.05;;;14.60;82.40;;;;;;5032289;28;20044;-75
2021/01/30 07:35:25;;;;;;;9.73;2.30;;;14.60;82.50;;;;;;5032421;28;20033;-74
2021/01/30 07:38:01;;;;;;;16.48;2.50;;;14.60;82.90;;;;;;5032191;28;20072;-75
2021/01/30 07:40:58;;;;;;;7.88;2.28;;;14.60;82.60;;;;;;5031843;28;20025;-74
2021/01/30 07:43:42;;;;;;;10.05;2.47;;;14.70;82.40;;;;;;5030911;28;20033;-74
2021/01/30 07:46:21;;;;;;;8.38;2.65;;;14.80;82.10;;;;;;5031929;28;20033;-74
2021/01/30 07:49:16;;;;;;;9.43;2.15;;;15.00;82.00;;;;;;5037153;28;20025;-74
2021/01/30 07:52:09;;;;;;;8.20;1.98;;;15.10;81.70;;;;;;5026601;28;20506;-75
2021/01/30 07:54:45;;;;;;;7.53;2.50;;;15.20;81.30;;;;;;5031858;28;20037;-74
2021/01/30 07:57:28;;;;;;;5.30;1.90;;;15.40;81.10;;;;;;5012439;28;20391;-74
2021/01/30 08:00:03;;;;;;;6.40;1.95;;;15.50;80.80;;;;;;5030973;28;20078;-73
2021/01/30 08:02:50;;;;;;;5.70;2.10;;;15.70;80.50;;;;;;5031196;28;20489;-78
2021/01/30 08:05:36;;;;;;;6.63;1.90;;;15.80;80.20;;;;;;5030976;28;20033;-77
2021/01/30 08:08:28;;;;;;;6.90;2.20;;;16.00;79.80;;;;;;5029955;28;20025;-76
2021/01/30 08:11:04;;;;;;;9.65;1.90;;;16.20;80.00;;;;;;5026044;28;20029;-74
2021/01/30 08:13:44;;;;;;;6.38;2.20;;;16.30;80.20;;;;;;5031075;28;20443;-73
2021/01/30 08:16:28;;;;;;;7.57;2.13;;;16.40;80.40;;;;;;5031571;28;20037;-75
2021/01/30 08:18:55;;;;;;;4.75;1.50;;;16.50;80.30;;;;;;5030737;28;20035;-73
2021/01/30 08:21:31;;;;;;;8.38;2.13;;;16.70;80.10;;;;;;5031183;28;20025;-74
2021/01/30 08:24:09;;;;;;;6.68;2.55;;;16.90;81.70;;;;;;5031528;28;20021;-73
2021/01/30 08:26:41;;;;;;;5.85;2.22;;;16.90;81.20;;;;;;5031218;28;20029;-72
2021/01/30 08:29:20;;;;;;;6.15;2.03;;;17.00;81.30;;;;;;5031141;28;20029;-73
2021/01/30 08:31:56;;;;;;;9.57;2.60;;;17.30;81.20;;;;;;5029786;28;20543;-73
2021/01/30 08:34:22;;;;;;;6.90;2.45;;;17.40;81.30;;;;;;5029367;28;20053;-74
2021/01/30 08:36:51;;;;;;;8.13;2.95;;;17.60;80.20;;;;;;5031169;28;20032;-73
2021/01/30 08:39:35;;;;;;;7.03;3.03;;;17.70;79.80;;;;;;5029768;28;20394;-73
2021/01/30 08:42:03;;;;;;;8.38;2.83;;;17.90;79.70;;;;;;5031568;28;20029;-70
2021/01/30 08:44:54;;;;;;;7.10;3.03;;;18.00;79.20;;;;;;5030600;28;20122;-71
2021/01/30 08:47:31;;;;;;;7.45;2.28;;;18.00;78.90;;;;;;5030767;28;20111;-71
2021/01/30 08:50:05;;;;;;;5.65;2.10;;;18.00;77.90;;;;;;5042263;28;20030;-73
2021/01/30 08:52:50;;;;;;;6.78;2.22;;;18.00;78.10;;;;;;5031134;28;20021;-71
2021/01/30 08:55:31;;;;;;;6.45;2.20;;;18.00;77.70;;;;;;5031268;28;20033;-71
2021/01/30 08:57:57;;;;;;;6.68;2.55;;;18.10;77.00;;;;;;5030281;28;20068;-72
2021/01/30 09:00:26;;;;;;;7.22;2.17;;;18.10;76.50;;;;;;5049158;28;20032;-71
2021/01/30 09:03:06;;;;;;;5.65;1.95;;;18.20;76.40;;;;;;5050613;28;20490;-74
2021/01/30 09:05:40;;;;;;;4.78;1.48;;;18.20;76.50;;;;;;5051294;28;20017;-74
2021/01/30 09:08:12;;;;;;;8.43;2.17;;;18.20;75.50;;;;;;5047342;28;20112;-77
2021/01/30 09:10:40;;;;;;;8.20;2.15;;;18.30;75.00;;;;;;5039006;28;20264;-76
2021/01/30 09:13:13;;;;;;;7.22;1.92;;;18.30;74.70;;;;;;5035952;28;20105;-78
2021/01/30 09:15:41;;;;;;;5.10;2.35;;;18.40;74.30;;;;;;5030520;28;20101;-73
2021/01/30 09:18:22;;;;;;;6.65;2.17;;;18.40;74.30;;;;;;5030874;28;20030;-76
2021/01/30 09:21:06;;;;;;;6.35;1.95;;;18.50;74.60;;;;;;5030786;28;20109;-75
2021/01/30 09:24:03;;;;;;;6.28;1.58;;;18.50;74.00;;;;;;5030164;28;20060;-79
2021/01/30 09:26:43;;;;;;;3.78;1.52;;;18.50;73.50;;;;;;5013919;28;20026;-73
2021/01/30 09:29:09;;;;;;;4.65;1.38;;;18.60;73.30;;;;;;5013269;28;20501;-74
2021/01/30 09:31:35;;;;;;;3.67;1.67;;;18.60;73.10;;;;;;5029457;28;20110;-77
2021/01/30 09:34:18;;;;;;;4.32;1.55;;;18.60;73.40;;;;;;5034120;28;20073;-77
2021/01/30 09:36:45;;;;;;;5.38;1.85;;;18.70;73.10;;;;;;5033426;28;20029;-77
2021/01/30 09:39:27;;;;;;;6.03;2.15;;;18.70;72.80;;;;;;5033818;28;20040;-77
2021/01/30 09:42:13;;;;;;;7.05;1.80;;;18.80;73.00;;;;;;5023014;28;20033;-77
2021/01/30 09:44:39;;;;;;;5.90;1.88;;;18.80;72.90;;;;;;5034095;28;20029;-77
2021/01/30 09:47:11;;;;;;;3.03;1.60;;;18.80;72.60;;;;;;5033206;28;20033;-77
2021/01/30 09:49:43;;;;;;;9.43;1.92;;;18.90;72.40;;;;;;5033149;28;20029;-76
2021/01/30 09:52:09;;;;;;;5.07;1.92;;;18.90;71.90;;;;;;5034185;28;20061;-79
2021/01/30 09:54:36;;;;;;;3.67;1.60;;;18.90;71.70;;;;;;5034086;28;20061;-77
2021/01/30 09:57:08;;;;;;;6.75;1.70;;;19.00;71.40;;;;;;5034513;28;20037;-77
2021/01/30 09:59:34;;;;;;;5.65;1.90;;;19.00;71.20;;;;;;5029417;28;20512;-76
2021/01/30 10:02:15;;;;;;;5.13;2.35;;;19.00;71.00;;;;;;5040711;28;20029;-73
2021/01/30 10:04:40;;;;;;;6.72;1.80;;;19.10;71.00;;;;;;5033803;28;20508;-76
2021/01/30 10:07:23;;;;;;;4.55;1.73;;;19.10;71.10;;;;;;5034195;28;20064;-76
2021/01/30 10:09:49;;;;;;;5.57;2.05;;;19.10;71.10;;;;;;5033874;28;20024;-74
2021/01/30 10:12:19;;;;;;;6.05;1.83;;;19.20;71.00;;;;;;5037208;28;20477;-74
2021/01/30 10:14:54;;;;;;;6.03;2.03;;;19.20;71.20;;;;;;5033558;28;20067;-76
2021/01/30 10:17:30;;;;;;;3.53;1.50;;;19.30;70.60;;;;;;5033538;28;20112;-76
2021/01/30 10:20:11;;;;;;;5.50;2.10;;;19.30;70.30;;;;;;5013656;28;20053;-76
2021/01/30 10:22:41;;;;;;;8.95;1.90;;;19.30;70.10;;;;;;5035947;28;20045;-75
2021/01/30 10:25:16;;;;;;;7.50;1.98;;;19.30;70.50;;;;;;5033463;28;20048;-73
2021/01/30 10:27:41;;;;;;;9.63;2.03;;;19.30;69.50;;;;;;5038243;28;20021;-74
2021/01/30 10:30:14;;;;;;;5.22;1.50;;;19.40;70.10;;;;;;5053316;28;20033;-73
2021/01/30 10:32:52;;;;;;;4.18;1.80;;;19.40;69.80;;;;;;5039148;28;20572;-74
2021/01/30 10:35:32;;;;;;;14.27;1.52;;;19.40;69.70;;;;;;5028933;28;20430;-74
2021/01/30 10:38:11;;;;;;;4.10;1.60;;;19.40;69.10;;;;;;5033514;28;20061;-73
2021/01/30 10:40:49;;;;;;;5.53;1.58;;;19.50;69.40;;;;;;5032937;28;20397;-74
2021/01/30 10:43:20;;;;;;;4.30;1.42;;;19.50;69.60;;;;;;5033224;28;20025;-74
2021/01/30 10:45:53;;;;;;;6.00;1.40;;;19.50;70.20;;;;;;5033179;28;20029;-74
2021/01/30 10:48:23;;;;;;;5.55;1.55;;;19.60;70.60;;;;;;5033266;28;20025;-74
2021/01/30 10:50:49;;;;;;;9.02;1.73;;;19.60;71.20;;;;;;5034712;28;20026;-74
2021/01/30 10:53:41;;;;;;;4.25;1.85;;;19.60;71.60;;;;;;5052840;28;20055;-74
2021/01/30 10:56:33;;;;;;;5.72;1.55;;;19.70;73.60;;;;;;5053058;28;20021;-74
2021/01/30 10:58:58;;;;;;;3.90;1.50;;;19.70;73.20;;;;;;5051256;28;20048;-74
2021/01/30 11:01:25;;;;;;;4.20;1.08;;;19.70;73.00;;;;;;5052786;28;20021;-73
2021/01/30 11:03:52;;;;;;;4.55;1.50;;;19.70;72.80;;;;;;5052126;28;20039;-74
2021/01/30 11:06:38;;;;;;;3.10;0.80;;;19.70;72.60;;;;;;5049307;28;20021;-74
2021/01/30 11:09:24;;;;;;;3.35;1.20;;;19.70;72.30;;;;;;5031567;28;20044;-73
2021/01/30 11:11:51;;;;;;;4.03;1.30;;;19.70;72.20;;;;;;5032554;28;20045;-73
2021/01/30 11:14:31;;;;;;;3.67;1.10;;;19.60;71.30;;;;;;5032476;28;20116;-73
2021/01/30 11:16:59;;;;;;;3.15;1.20;;;19.60;71.40;;;;;;5032767;28;20049;-73
2021/01/30 11:19:25;;;;;;;3.20;0.95;;;19.70;71.40;;;;;;5029956;28;20021;-74
2021/01/30 11:22:05;;;;;;;4.53;1.17;;;19.70;70.80;;;;;;5024835;28;20026;-74
2021/01/30 11:24:50;;;;;;;3.72;1.02;;;19.70;70.60;;;;;;5028140;28;20021;-73
2021/01/30 11:27:33;;;;;;;4.13;1.20;;;19.70;70.60;;;;;;5032244;28;20026;-73
2021/01/30 11:30:11;;;;;;;3.55;1.15;;;19.80;70.40;;;;;;5032497;28;20033;-73
2021/01/30 11:32:36;;;;;;;4.32;1.10;;;19.80;70.40;;;;;;5031417;28;20370;-74
2021/01/30 11:35:04;;;;;;;3.67;1.25;;;19.80;70.30;;;;;;5029390;28;20037;-74
2021/01/30 11:37:31;;;;;;;3.15;1.00;;;19.80;70.00;;;;;;5032695;28;20021;-73
2021/01/30 11:40:05;;;;;;;3.60;0.95;;;19.80;70.20;;;;;;5032520;28;20107;-73
2021/01/30 11:42:31;;;;;;;3.53;0.98;;;19.80;70.00;;;;;;5031135;28;20018;-73
2021/01/30 11:44:57;;;;;;;4.70;0.85;;;19.90;69.80;;;;;;5032211;28;20037;-73
2021/01/30 11:47:23;;;;;;;4.80;0.80;;;19.80;69.40;;;;;;5031851;28;20021;-73
2021/01/30 11:49:48;;;;;;;3.10;1.30;;;19.90;69.70;;;;;;5041943;28;20029;-73
2021/01/30 11:52:24;;;;;;;1.90;0.85;;;19.80;68.70;;;;;;5051947;28;20060;-72
2021/01/30 11:54:50;;;;;;;3.88;1.10;;;19.60;66.60;;;;;;5033274;28;20041;-72
2021/01/30 11:57:15;;;;;;;2.47;0.80;;;19.50;65.60;;;;;;5034988;28;20489;-72
2021/01/30 11:59:41;;;;;;;4.20;1.10;;;19.50;64.90;;;;;;5051770;28;20545;-72
2021/01/30 12:02:33;;;;;;;4.70;0.80;;;19.40;64.20;;;;;;5051657;28;20025;-72
2021/01/30 12:04:59;;;;;;;3.30;0.77;;;19.30;63.60;;;;;;5052042;28;20095;-73
2021/01/30 12:07:25;;;;;;;1.85;0.90;;;19.30;65.20;;;;;;5051809;28;20461;-71
2021/01/30 12:09:51;;;;;;;4.45;0.90;;;19.30;62.60;;;;;;5051545;28;20025;-72
2021/01/30 12:12:17;;;;;;;1.30;0.60;;;19.20;62.50;;;;;;5051851;28;20050;-71
2021/01/30 12:14:43;;;;;;;1.52;0.70;;;19.30;61.30;;;;;;5051019;28;20033;-72
2021/01/30 12:17:13;;;;;;;5.00;0.90;;;19.20;60.60;;;;;;5051559;28;20025;-71
2021/01/30 12:19:39;;;;;;;2.15;0.80;;;19.10;60.20;;;;;;5038653;28;20539;-72
2021/01/30 12:22:04;;;;;;;1.70;0.70;;;19.10;60.00;;;;;;5031611;28;20108;-73
2021/01/30 12:24:30;;;;;;;1.20;0.75;;;19.20;59.70;;;;;;5030324;28;20032;-70
2021/01/30 12:26:56;;;;;;;1.30;0.63;;;19.00;58.80;;;;;;5030522;28;20017;-72
2021/01/30 12:29:21;;;;;;;2.20;0.82;;;19.00;59.20;;;;;;5029796;28;20105;-71
2021/01/30 12:31:47;;;;;;;1.63;0.55;;;19.10;58.90;;;;;;5028185;28;20103;-73
2021/01/30 12:34:13;;;;;;;1.40;0.60;;;19.10;58.70;;;;;;5029498;28;20037;-73
2021/01/30 12:36:38;;;;;;;0.98;0.60;;;19.20;58.60;;;;;;5029745;28;20041;-72
2021/01/30 12:39:04;;;;;;;1.42;0.82;;;19.20;58.80;;;;;;5030648;28;20033;-73
2021/01/30 12:41:30;;;;;;;2.38;0.70;;;19.30;58.90;;;;;;5031378;28;20098;-73
2021/01/30 12:43:56;;;;;;;2.25;0.70;;;19.30;59.40;;;;;;5030775;28;20061;-73
2021/01/30 12:46:21;;;;;;;1.17;0.43;;;19.40;59.20;;;;;;5031318;28;20061;-73
2021/01/30 12:48:47;;;;;;;1.70;0.60;;;19.40;59.40;;;;;;5035643;28;20032;-73
2021/01/30 12:51:14;;;;;;;4.32;0.68;;;19.40;59.40;;;;;;5041616;28;20509;-72
2021/01/30 12:53:39;;;;;;;2.72;0.90;;;19.40;59.50;;;;;;5010891;28;20437;-74
2021/01/30 12:56:05;;;;;;;2.60;1.05;;;19.50;59.70;;;;;;5021102;28;20036;-72
2021/01/30 12:58:32;;;;;;;1.15;0.50;;;19.50;59.80;;;;;;5030499;28;20060;-73
2021/01/30 13:00:58;;;;;;;1.20;0.60;;;19.50;59.70;;;;;;5031492;28;20477;-73
2021/01/30 13:03:24;;;;;;;3.53;0.98;;;19.50;60.00;;;;;;5031167;28;20079;-73
2021/01/30 13:05:51;;;;;;;1.15;0.60;;;19.60;60.50;;;;;;5030511;28;20084;-73
2021/01/30 13:08:18;;;;;;;1.60;0.60;;;19.70;60.20;;;;;;5030901;28;20026;-73
2021/01/30 13:10:44;;;;;;;3.03;0.60;;;19.60;60.20;;;;;;5030674;28;20057;-72
2021/01/30 13:13:10;;;;;;;1.30;0.50;;;19.70;60.30;;;;;;5030543;28;20438;-71
2021/01/30 13:15:35;;;;;;;2.97;0.63;;;19.70;61.30;;;;;;5030779;28;20355;-72